KHSD

Sundance Airport

Oklahoma City, Oklahoma, USA
METAR KHSD 201520Z AUTO 33016G25KT 4SM BR OVC008 M01/M01 A2999 RMK A01
Observed Flight Rules
Feb-20 @ 15:20 UTC (4 hours ago) Instrument Flight Rules
Wind Visibility Clouds Conditions
330° at 16 knots
 Gusting to 25 knots
4 miles
  • Overcast at 800' AGL
  • Mist
Temperatures Readings
Current -1°C / 30°F
Dewpoint -1°C / 30°F
Humidity 100%
Altimeter 29.99" Hg
Pressure 1016 hPa
Elevation 364
METAR KHSD 201520Z AUTO 33016G25KT 4SM BR OVC008 M01/M01 A2999 RMK A01
Observed Flight Rules
Feb-20 @ 15:20 UTC
(4 hours ago)
IFR
Wind Visibility
330° at 16 knots
 Gusting to 25 knots
4 miles
Clouds
  • Overcast at 800' AGL
Conditions
  • Mist
Temperature Dewpoint
-1°C / 30°F -1°C / 30°F
Humidity Altimeter Pressure
100% 29.99" Hg 1016 hPa